Impacts TAF Board INFO
FOR SITUATIONAL AWARENESS. NOT TO BE USED FOR FLIGHT PLANNING PURPOSES.
IDs:

KLGA - New York/La Guardia, NY, US

Issued at 1740 UTC 18 Nov 2017
Updated at 1752 UTC 18 Nov 2017
Potential Impact None Slight Moderate High
Time<<19/06Z 19/07Z 19/08Z 19/09Z 19/10Z 19/11Z 19/12Z 19/13Z 19/14Z 19/15Z 19/16Z 19/17Z 19/18Z>>
Type PRVL PRVL PRVL PRVL PRVL PRVL PRVL PRVL PRVL PRVL PRVL PRVL
VIS 5 3 3 3 3 3 5 5 5 >6 >6 >6
CIG 25 15 15 15 15 15 20 20 20 30 30 30
Cover OVC OVC OVC OVC OVC OVC BKN BKN BKN BKN BKN BKN
FltCat MVFR MVFR MVFR MVFR MVFR MVFR MVFR MVFR MVFR MVFR MVFR MVFR
WX -SHRA BR SHRA BR SHRA BR SHRA BR SHRA BR SHRA BR -SHRA BR -SHRA BR -SHRA BR -- -- --
WDir 210 210 210 210 210 210 240 240 240 290 290 290
WSpd 16 22 22 22 22 22 26 26 26 28 28 28
WGst 25 32 32 32 32 32 35 35 35 37 37 37

Raw TAF
KLGA 181740Z 1818/1918 20014G23KT P6SM VCSH SCT050 BKN100
  FM182100 20016G25KT 6SM -SHRA BR SCT030 BKN050 OVC070
  FM190200 21016G25KT 5SM -SHRA BR SCT015 BKN025 OVC050
  FM190700 21022G32KT 3SM SHRA BR SCT007 BKN015 OVC035
  FM191200 24026G35KT 5SM -SHRA BR SCT008 BKN020
  FM191500 29028G37KT P6SM BKN030


METAR Board
Radar Display
Forecast Discussion

FOR SITUATIONAL AWARENESS. NOT TO BE USED FOR FLIGHT PLANNING PURPOSES.